createdAt,value
2023-03-06T00:04:19.934Z,97312.66
2023-03-06T00:09:25.567Z,97306.88
2023-03-06T00:14:29.952Z,97311.75
2023-03-06T00:19:34.039Z,97313.13
2023-03-06T00:24:39.289Z,97307.88
2023-03-06T00:29:43.435Z,97305.94
2023-03-06T00:34:49.880Z,97307.72
2023-03-06T00:39:55.556Z,97298.94
2023-03-06T00:44:59.896Z,97295.47
2023-03-06T00:50:04.776Z,97297.59
2023-03-06T00:55:10.930Z,97297.72
2023-03-06T01:00:16.202Z,97289.59
2023-03-06T01:05:20.943Z,97294.91
2023-03-06T01:10:27.274Z,97288.81
2023-03-06T01:15:31.241Z,97292.22
2023-03-06T01:20:35.735Z,97293.50
2023-03-06T01:25:41.375Z,97289.91
2023-03-06T01:30:45.680Z,97288.97
2023-03-06T01:35:50.206Z,97275.03
2023-03-06T01:40:55.844Z,97273.00
2023-03-06T01:46:26.841Z,97270.81
2023-03-06T01:51:34.243Z,97270.50
2023-03-06T01:56:44.347Z,97272.44
2023-03-06T02:01:49.099Z,97272.03
2023-03-06T02:06:53.439Z,97264.47
2023-03-06T02:11:59.105Z,97264.69
2023-03-06T02:17:03.568Z,97265.47
2023-03-06T02:22:07.888Z,97266.47
2023-03-06T02:27:15.170Z,97268.00
2023-03-06T02:32:19.993Z,97253.88
2023-03-06T02:37:25.460Z,97256.28
2023-03-06T02:42:32.395Z,97255.72
2023-03-06T02:47:36.491Z,97244.41
2023-03-06T02:52:40.603Z,97243.38
2023-03-06T02:57:45.982Z,97238.13
2023-03-06T03:02:51.050Z,97239.59
2023-03-06T03:07:55.494Z,97227.63
2023-03-06T03:13:01.731Z,97233.97
2023-03-06T03:18:06.150Z,97237.19
2023-03-06T03:23:10.476Z,97226.72
2023-03-06T03:28:15.898Z,97233.19
2023-03-06T03:33:20.787Z,97220.66
2023-03-06T03:38:24.994Z,97222.69
2023-03-06T03:43:31.117Z,97222.69
2023-03-06T03:48:36.220Z,97217.19
2023-03-06T03:53:41.348Z,97205.38
2023-03-06T03:58:48.945Z,97212.81
2023-03-06T04:03:53.533Z,97217.28
2023-03-06T04:08:57.935Z,97202.31
2023-03-06T04:14:04.006Z,97198.56
2023-03-06T04:19:08.710Z,97184.47
2023-03-06T04:24:13.153Z,97192.13
2023-03-06T04:29:18.871Z,97177.44
2023-03-06T04:34:23.485Z,97182.31
2023-03-06T04:39:28.420Z,97167.06
2023-03-06T04:44:34.328Z,97167.88
2023-03-06T04:49:38.610Z,97166.81
2023-03-06T04:54:42.919Z,97160.63
2023-03-06T04:59:49.598Z,97148.50
2023-03-06T05:04:53.464Z,97145.69
2023-03-06T05:09:58.349Z,97151.63
2023-03-06T05:15:03.919Z,97132.06
2023-03-06T05:20:10.820Z,97136.81
2023-03-06T05:25:14.918Z,97130.47
2023-03-06T05:30:22.507Z,97132.34
2023-03-06T05:35:26.504Z,97131.78
2023-03-06T05:40:30.868Z,97123.34
2023-03-06T05:45:36.357Z,97124.38
2023-03-06T05:50:40.660Z,97125.75
2023-03-06T05:55:44.606Z,97125.63
2023-03-06T06:00:49.850Z,97115.38
2023-03-06T06:05:54.046Z,97121.88
2023-03-06T06:10:58.564Z,97120.25
2023-03-06T06:16:09.422Z,97103.53
2023-03-06T06:21:15.810Z,97114.88
2023-03-06T06:26:19.804Z,97102.19
2023-03-06T06:31:25.076Z,97105.03
2023-03-06T06:36:29.253Z,97104.75
2023-03-06T06:41:53.038Z,97101.34
2023-03-06T06:47:21.880Z,97097.84
2023-03-06T06:52:23.162Z,97090.69
2023-03-06T06:57:27.498Z,97099.72
2023-03-06T07:02:33.240Z,97088.75
2023-03-06T07:07:38.482Z,97096.44
2023-03-06T07:12:43.099Z,97104.25
2023-03-06T07:17:50.207Z,97095.84
2023-03-06T07:22:54.620Z,97096.47
2023-03-06T07:27:58.650Z,97100.06
2023-03-06T07:33:04.245Z,97107.84
2023-03-06T07:38:08.151Z,97104.81
2023-03-06T07:43:19.101Z,97112.63
2023-03-06T07:48:35.320Z,97114.53
2023-03-06T07:53:39.242Z,97126.66
2023-03-06T07:58:45.097Z,97120.13
2023-03-06T08:03:51.066Z,97125.75
2023-03-06T08:08:56.543Z,97121.22
2023-03-06T08:14:01.317Z,97129.75
2023-03-06T08:19:06.600Z,97133.56
2023-03-06T08:24:10.932Z,97134.97
2023-03-06T08:29:15.435Z,97133.69
2023-03-06T08:34:22.339Z,97121.53
2023-03-06T08:39:26.347Z,97133.16
2023-03-06T08:44:30.347Z,97126.72
2023-03-06T08:49:36.414Z,97135.78
2023-03-06T08:54:40.768Z,97141.38
2023-03-06T08:59:44.704Z,97137.63
2023-03-06T09:04:50.164Z,97138.06
2023-03-06T09:09:57.119Z,97138.59
2023-03-06T09:15:04.907Z,97148.38
2023-03-06T09:20:11.954Z,97147.03
2023-03-06T09:25:20.298Z,97146.03
2023-03-06T09:30:24.328Z,97147.59
2023-03-06T09:35:29.986Z,97139.59
2023-03-06T09:40:43.673Z,97133.69
2023-03-06T09:45:47.756Z,97144.50
2023-03-06T09:51:00.255Z,97147.88
2023-03-06T09:56:07.907Z,97144.34
2023-03-06T10:01:17.535Z,97136.59
2023-03-06T10:06:26.411Z,97138.22
2023-03-06T10:11:37.621Z,97132.56
2023-03-06T10:16:42.046Z,97133.34
2023-03-06T10:21:55.459Z,97127.03
2023-03-06T10:27:05.082Z,97114.28
2023-03-06T10:32:30.432Z,97115.91
2023-03-06T10:37:37.610Z,97105.56
2023-03-06T10:42:41.457Z,97115.00
2023-03-06T10:47:46.140Z,97105.19
2023-03-06T10:53:01.176Z,97102.91
2023-03-06T10:58:19.823Z,97105.84
2023-03-06T11:03:25.125Z,97098.50
2023-03-06T11:08:31.149Z,97094.06
2023-03-06T11:13:36.762Z,97087.28
2023-03-06T11:18:43.807Z,97086.09
2023-03-06T11:23:49.680Z,97063.66
2023-03-06T11:29:03.035Z,97075.44
2023-03-06T11:34:15.022Z,97073.16
2023-03-06T11:39:27.541Z,97060.44
2023-03-06T11:44:38.236Z,97054.81
2023-03-06T11:49:45.460Z,97047.94
2023-03-06T11:54:55.475Z,97046.81
2023-03-06T12:00:16.682Z,97042.22
2023-03-06T12:05:31.231Z,97029.22
2023-03-06T12:10:40.152Z,97029.75
2023-03-06T12:16:07.239Z,97025.69
2023-03-06T12:21:16.720Z,97013.66
2023-03-06T12:26:42.420Z,97017.34
2023-03-06T12:32:01.744Z,97016.88
2023-03-06T12:37:17.772Z,97004.81
2023-03-06T12:42:42.370Z,97002.00
2023-03-06T12:47:48.480Z,97007.50
2023-03-06T12:52:53.323Z,97004.56
2023-03-06T12:58:18.565Z,96993.97
2023-03-06T13:03:27.504Z,96987.25
2023-03-06T13:08:59.955Z,96991.06
2023-03-06T13:14:27.190Z,96983.03
2023-03-06T13:19:31.084Z,96982.78
2023-03-06T13:24:37.285Z,96976.31
2023-03-06T13:30:22.594Z,96969.19
2023-03-06T13:35:50.233Z,96962.81
2023-03-06T13:41:14.394Z,96951.97
2023-03-06T13:46:26.285Z,96952.69
2023-03-06T13:51:33.326Z,96942.94
2023-03-06T13:57:15.547Z,96941.19
2023-03-06T14:02:45.171Z,96928.81
2023-03-06T14:07:50.468Z,96926.63
2023-03-06T14:13:04.203Z,96913.03
2023-03-06T14:18:16.712Z,96914.16
2023-03-06T14:23:35.772Z,96919.09
2023-03-06T14:28:40.410Z,96937.34
2023-03-06T14:33:51.270Z,96927.63
2023-03-06T14:38:58.354Z,96935.75
2023-03-06T14:44:20.577Z,96942.13
2023-03-06T14:49:27.620Z,96952.53
2023-03-06T14:54:33.591Z,96953.59
2023-03-06T14:59:42.925Z,96969.19
2023-03-06T15:04:50.081Z,96978.97
2023-03-06T15:09:55.437Z,96959.91
2023-03-06T15:15:01.040Z,96934.09
2023-03-06T15:20:09.360Z,96934.31
2023-03-06T15:25:23.374Z,96917.75
2023-03-06T15:30:30.312Z,96926.31
2023-03-06T15:35:37.913Z,96921.81
2023-03-06T15:40:54.732Z,96933.09
2023-03-06T15:46:01.216Z,96938.22
2023-03-06T15:51:07.175Z,96938.78
2023-03-06T15:56:12.052Z,96941.13
2023-03-06T16:01:18.667Z,96940.97
2023-03-06T16:06:25.538Z,96939.88
2023-03-06T16:11:43.285Z,96937.31
2023-03-06T16:16:49.250Z,96953.06
2023-03-06T16:21:55.141Z,96948.09
2023-03-06T16:27:02.168Z,96953.66
2023-03-06T16:32:07.375Z,96949.44
2023-03-06T16:37:14.346Z,96948.69
2023-03-06T16:42:19.493Z,96957.59
2023-03-06T16:47:23.853Z,96951.94
2023-03-06T16:52:30.242Z,96945.81
2023-03-06T16:57:35.753Z,96947.09
2023-03-06T17:02:39.892Z,96944.94
2023-03-06T17:07:45.827Z,96951.38
2023-03-06T17:12:50.129Z,96945.34
2023-03-06T17:17:55.085Z,96949.47
2023-03-06T17:23:01.442Z,96947.50
2023-03-06T17:28:06.084Z,96946.22
2023-03-06T17:33:11.330Z,96951.28
2023-03-06T17:38:17.160Z,96948.66
2023-03-06T17:43:21.893Z,96947.03
2023-03-06T17:48:26.008Z,96944.38
2023-03-06T17:53:31.446Z,96942.88
2023-03-06T17:58:36.644Z,96957.47
2023-03-06T18:03:44.259Z,96955.13
2023-03-06T18:08:52.677Z,96954.91
2023-03-06T18:13:58.384Z,96956.28
2023-03-06T18:19:02.256Z,96953.41
2023-03-06T18:24:09.864Z,96952.31
2023-03-06T18:29:13.951Z,96948.78
2023-03-06T18:34:19.435Z,96950.41
2023-03-06T18:39:24.833Z,96953.63
2023-03-06T18:44:29.249Z,96957.09
2023-03-06T18:49:33.085Z,96960.47
2023-03-06T18:54:38.305Z,96956.94
2023-03-06T18:59:42.165Z,96968.44
2023-03-06T19:04:46.378Z,96952.09
2023-03-06T19:09:51.644Z,96948.88
2023-03-06T19:14:56.081Z,96953.78
2023-03-06T19:19:59.936Z,96947.59
2023-03-06T19:25:05.757Z,96939.03
2023-03-06T19:30:11.178Z,96942.97
2023-03-06T19:35:15.663Z,96943.41
2023-03-06T19:40:21.392Z,96949.78
2023-03-06T19:45:25.409Z,96945.22
2023-03-06T19:50:30.755Z,96937.00
2023-03-06T19:55:36.926Z,96939.03
2023-03-06T20:00:42.478Z,96937.31
2023-03-06T20:05:47.788Z,96936.34
2023-03-06T20:10:53.454Z,96946.75
2023-03-06T20:15:58.315Z,96949.97
2023-03-06T20:21:03.523Z,96952.41
2023-03-06T20:26:12.308Z,96937.59
2023-03-06T20:31:17.744Z,96950.03
2023-03-06T20:36:27.478Z,96943.56
2023-03-06T20:41:33.467Z,96949.22
2023-03-06T20:46:37.501Z,96953.13
2023-03-06T20:51:42.392Z,96955.13
2023-03-06T20:56:50.195Z,96954.28
2023-03-06T21:01:54.322Z,96944.66
2023-03-06T21:06:58.280Z,96944.72
2023-03-06T21:12:03.528Z,96957.94
2023-03-06T21:17:07.382Z,96946.59
2023-03-06T21:22:11.385Z,96949.94
2023-03-06T21:27:16.596Z,96941.91
2023-03-06T21:32:21.085Z,96944.31
2023-03-06T21:37:25.586Z,96944.47
2023-03-06T21:42:30.853Z,96938.97
2023-03-06T21:47:38.772Z,96944.22
2023-03-06T21:52:43.277Z,96947.72
2023-03-06T21:57:52.241Z,96942.75
2023-03-06T22:02:56.327Z,96939.66
2023-03-06T22:08:00.710Z,96941.00
2023-03-06T22:13:06.165Z,96940.19
2023-03-06T22:18:15.759Z,96950.59
2023-03-06T22:23:19.880Z,96946.13
2023-03-06T22:28:25.346Z,96945.31
2023-03-06T22:33:29.375Z,96940.19
2023-03-06T22:38:33.731Z,96937.75
2023-03-06T22:43:39.374Z,96938.44
2023-03-06T22:48:44.010Z,96938.72
2023-03-06T22:53:48.616Z,96936.16
2023-03-06T22:58:54.205Z,96941.56
2023-03-06T23:04:00.201Z,96945.91
2023-03-06T23:09:06.013Z,96942.13
2023-03-06T23:14:30.266Z,96943.25
2023-03-06T23:19:53.176Z,96945.97
2023-03-06T23:25:15.666Z,96941.22
2023-03-06T23:30:21.657Z,96939.88
2023-03-06T23:35:25.514Z,96937.44
2023-03-06T23:40:29.897Z,96936.63
2023-03-06T23:45:35.746Z,96943.94
2023-03-06T23:50:41.262Z,96941.97
2023-03-06T23:55:46.103Z,96940.06
